Time;durP1;ratioP1;P1;durP2;ratioP2;P2;SDS_P1;SDS_P2;PMS_P1;PMS_P2;Temp;Humidity;BMP_temperature;BMP_pressure;BME280_temperature;BME280_humidity;BME280_pressure;Samples;Min_cycle;Max_cycle;Signal;HPM_P1;HPM_P2
2021/06/28 04:23:04;;;;;;;17.62;10.32;;;;;;;24.80;79.91;99609.25;1852878;76;28539;-76
2021/06/28 04:26:10;;;;;;;26.00;11.33;;;;;;;24.83;79.13;99607.81;1836797;77;21279;-76
2021/06/28 04:29:15;;;;;;;26.23;11.22;;;;;;;24.78;78.89;99610.08;1842110;77;21857;-76
2021/06/28 04:32:20;;;;;;;21.48;10.30;;;;;;;24.85;79.37;99615.38;1834703;77;21361;-76
2021/06/28 04:35:35;;;;;;;21.07;11.63;;;;;;;24.92;79.34;99621.48;1843579;77;21148;-77
2021/06/28 04:38:44;;;;;;;18.70;11.63;;;;;;;24.95;78.38;99629.30;1842152;77;21300;-76
2021/06/28 04:41:50;;;;;;;25.77;12.33;;;;;;;24.99;78.22;99626.21;1829365;77;21828;-76
2021/06/28 04:44:56;;;;;;;13.45;10.53;;;;;;;25.05;78.37;99630.64;1825323;77;21313;-78
2021/06/28 04:48:01;;;;;;;26.40;11.35;;;;;;;25.13;77.96;99629.25;1843710;77;21188;-78
2021/06/28 04:51:07;;;;;;;19.45;10.25;;;;;;;25.14;77.21;99638.73;1830290;77;21310;-78
2021/06/28 04:54:13;;;;;;;20.25;11.15;;;;;;;25.18;77.42;99635.64;1843045;77;21303;-78
2021/06/28 04:57:19;;;;;;;23.18;12.25;;;;;;;25.30;76.96;99627.44;1843704;77;21338;-78
2021/06/28 05:00:27;;;;;;;19.12;11.15;;;;;;;25.46;76.86;99631.83;1843315;77;21307;-78
2021/06/28 05:03:33;;;;;;;12.53;10.23;;;;;;;25.58;75.66;99624.44;1821858;77;21341;-77
2021/06/28 05:06:39;;;;;;;18.42;9.93;;;;;;;25.62;75.32;99622.16;1822190;77;21761;-77
2021/06/28 05:09:45;;;;;;;11.90;9.08;;;;;;;25.65;74.84;99620.76;1802043;79;21900;-78
2021/06/28 05:12:51;;;;;;;18.23;10.15;;;;;;;25.74;74.65;99622.63;1832112;77;21314;-78
2021/06/28 05:15:59;;;;;;;16.90;9.35;;;;;;;25.85;74.52;99626.77;1843334;77;21748;-78
2021/06/28 05:19:06;;;;;;;24.87;10.68;;;;;;;26.02;73.61;99627.19;1828077;77;21860;-78
2021/06/28 05:22:13;;;;;;;13.18;8.75;;;;;;;26.11;71.95;99627.35;1836665;77;21382;-78
2021/06/28 05:25:19;;;;;;;15.28;8.75;;;;;;;26.17;71.46;99627.02;1840788;77;21298;-77
2021/06/28 05:28:27;;;;;;;21.00;9.13;;;;;;;26.20;70.60;99639.02;1845374;77;21219;-77
2021/06/28 05:31:34;;;;;;;11.93;8.83;;;;;;;26.21;71.24;99635.11;1846893;77;21227;-78
2021/06/28 05:34:41;;;;;;;13.28;8.48;;;;;;;26.27;70.54;99639.27;1802295;79;21314;-78
2021/06/28 05:37:48;;;;;;;14.30;7.72;;;;;;;26.27;70.13;99640.09;1759321;80;21374;-78
2021/06/28 05:40:55;;;;;;;13.43;7.30;;;;;;;26.32;69.11;99646.22;1798189;79;21220;-78
2021/06/28 05:44:00;;;;;;;18.12;8.25;;;;;;;26.39;68.48;99644.71;1793639;79;21318;-78
2021/06/28 05:47:07;;;;;;;11.25;7.37;;;;;;;26.40;68.03;99644.17;1804895;79;21314;-78
2021/06/28 05:50:18;;;;;;;11.63;7.10;;;;;;;26.42;68.85;99645.53;1792395;79;21208;-78
2021/06/28 05:53:25;;;;;;;20.45;7.62;;;;;;;26.55;68.55;99641.79;1789996;79;21282;-77
2021/06/28 05:56:31;;;;;;;12.43;7.62;;;;;;;26.64;68.49;99639.43;1803777;79;21278;-78
2021/06/28 05:59:37;;;;;;;12.05;7.83;;;;;;;26.74;67.76;99648.28;1806356;79;21369;-78
2021/06/28 06:02:43;;;;;;;18.02;7.67;;;;;;;26.83;67.27;99645.09;1799626;79;21212;-78
2021/06/28 06:05:50;;;;;;;13.22;8.03;;;;;;;26.92;67.84;99647.50;1789925;79;21294;-78
2021/06/28 06:08:55;;;;;;;10.93;5.95;;;;;;;27.05;67.73;99655.72;1760062;80;21950;-78
2021/06/28 06:12:02;;;;;;;9.58;6.10;;;;;;;27.19;67.04;99656.68;1761255;80;21346;-78
2021/06/28 06:15:08;;;;;;;10.13;5.80;;;;;;;27.16;66.35;99655.06;1801627;79;21196;-78
2021/06/28 06:18:14;;;;;;;12.68;6.53;;;;;;;27.15;66.13;99659.02;1798372;79;22607;-79
2021/06/28 06:21:20;;;;;;;12.13;6.40;;;;;;;27.36;66.63;99665.17;1759769;80;21318;-79
2021/06/28 06:24:30;;;;;;;10.38;6.45;;;;;;;27.38;65.89;99665.69;1800674;79;21303;-79
2021/06/28 06:27:33;;;;;;;12.98;7.58;;;;;;;27.32;66.25;99670.55;1790188;79;21323;-79
2021/06/28 06:30:39;;;;;;;13.40;6.75;;;;;;;27.45;66.70;99671.77;1801504;79;21310;-78
2021/06/28 06:33:45;;;;;;;11.85;6.47;;;;;;;27.62;66.56;99677.70;1794061;79;21187;-79
2021/06/28 06:36:51;;;;;;;10.32;6.00;;;;;;;27.63;64.66;99690.59;1764219;80;21319;-79
2021/06/28 06:39:58;;;;;;;11.03;6.50;;;;;;;27.56;63.22;99683.11;1803676;79;21318;-78
2021/06/28 06:43:04;;;;;;;11.80;6.92;;;;;;;27.54;63.58;99691.02;1800221;79;21303;-78
2021/06/28 06:46:14;;;;;;;12.07;6.35;;;;;;;27.49;64.58;99695.30;1791861;79;21196;-78
2021/06/28 06:49:19;;;;;;;8.38;6.50;;;;;;;27.51;64.66;99695.82;1799334;79;21313;-78
2021/06/28 06:52:26;;;;;;;13.05;7.15;;;;;;;27.63;64.43;99698.19;1799014;79;21310;-78
2021/06/28 06:55:34;;;;;;;15.90;7.67;;;;;;;27.78;64.08;99699.95;1807207;79;21318;-78
2021/06/28 06:58:43;;;;;;;14.15;8.15;;;;;;;27.79;63.68;99698.81;1806588;79;21330;-78
2021/06/28 07:01:49;;;;;;;14.58;7.45;;;;;;;27.71;64.12;99700.29;1790286;79;21302;-78
2021/06/28 07:04:56;;;;;;;12.55;6.62;;;;;;;27.76;62.91;99699.70;1793795;79;21330;-78
2021/06/28 07:08:02;;;;;;;15.13;7.80;;;;;;;27.86;63.53;99702.91;1765770;80;21325;-79
2021/06/28 07:11:12;;;;;;;11.50;7.30;;;;;;;27.93;63.65;99709.54;1786543;79;21306;-78
2021/06/28 07:14:16;;;;;;;13.32;6.70;;;;;;;27.90;62.61;99710.14;1760055;80;21338;-79
2021/06/28 07:17:21;;;;;;;8.43;7.25;;;;;;;27.90;62.61;99710.14;1790793;79;21804;-79
2021/06/28 07:20:28;;;;;;;9.68;6.30;;;;;;;27.98;62.37;99720.13;1758330;80;21262;-78
2021/06/28 07:23:35;;;;;;;9.90;6.85;;;;;;;27.76;61.06;99717.96;1794272;79;21357;-79
2021/06/28 07:26:41;;;;;;;9.80;6.25;;;;;;;27.76;61.06;99717.96;1766068;80;21329;-77
2021/06/28 07:29:47;;;;;;;8.35;6.10;;;;;;;27.88;62.20;99719.46;1802523;79;21220;-78
2021/06/28 07:32:53;;;;;;;12.23;6.80;;;;;;;27.93;60.20;99716.56;1759463;80;21224;-78
2021/06/28 07:35:59;;;;;;;9.78;6.85;;;;;;;27.99;62.33;99709.70;1793107;79;21226;-77
2021/06/28 07:39:05;;;;;;;9.88;6.70;;;;;;;28.07;62.05;99716.63;1802883;79;21793;-77
2021/06/28 07:42:11;;;;;;;7.30;5.47;;;;;;;28.09;60.30;99719.41;1803336;79;21820;-78
2021/06/28 07:45:19;;;;;;;9.13;5.90;;;;;;;28.01;60.81;99711.66;1805164;79;21160;-78
2021/06/28 07:48:24;;;;;;;10.78;5.85;;;;;;;27.71;59.14;99712.42;1807864;79;21774;-78
2021/06/28 07:51:31;;;;;;;11.38;6.15;;;;;;;27.71;59.14;99712.42;1797086;79;21315;-78
2021/06/28 07:54:40;;;;;;;13.10;6.87;;;;;;;27.72;59.85;99711.27;1757564;80;21328;-77
2021/06/28 07:57:44;;;;;;;10.60;5.87;;;;;;;27.84;60.85;99705.75;1762856;80;21829;-77
2021/06/28 08:00:50;;;;;;;6.53;5.72;;;;;;;28.00;60.38;99717.02;1800915;79;21861;-77
2021/06/28 08:03:56;;;;;;;7.33;5.62;;;;;;;28.09;59.65;99722.21;1793950;79;21188;-78
2021/06/28 08:07:04;;;;;;;8.58;5.67;;;;;;;28.47;59.75;99712.30;1767442;80;21810;-78
2021/06/28 08:10:14;;;;;;;12.03;5.60;;;;;;;28.47;59.75;99712.30;1771863;80;21358;-77
2021/06/28 08:13:22;;;;;;;10.80;6.92;;;;;;;28.77;58.54;99715.92;1759605;80;21866;-78
2021/06/28 08:16:29;;;;;;;12.53;7.55;;;;;;;29.00;58.79;99721.13;1797395;79;21204;-78
2021/06/28 08:19:35;;;;;;;14.73;8.78;;;;;;;28.96;56.91;99724.88;1762008;80;21310;-78
2021/06/28 08:22:41;;;;;;;9.78;6.72;;;;;;;28.65;57.81;99738.09;1800664;79;21639;-78
2021/06/28 08:25:46;;;;;;;10.05;7.12;;;;;;;28.19;58.05;99738.08;1759886;80;21204;-78
2021/06/28 08:28:53;;;;;;;12.05;7.15;;;;;;;27.64;59.27;99735.80;1791339;79;21199;-78
2021/06/28 08:31:59;;;;;;;12.40;8.43;;;;;;;27.40;61.22;99744.86;1787205;79;21211;-78
2021/06/28 08:35:05;;;;;;;15.70;7.45;;;;;;;27.46;62.47;99732.41;1764618;80;21244;-78
2021/06/28 08:38:11;;;;;;;12.45;7.20;;;;;;;27.67;62.53;99735.20;1764609;80;21308;-78
2021/06/28 08:41:22;;;;;;;12.68;8.13;;;;;;;27.70;60.98;99743.00;1803159;79;21315;-78
2021/06/28 08:44:29;;;;;;;11.53;8.50;;;;;;;27.70;60.98;99743.00;1799768;79;21169;-78
2021/06/28 08:47:35;;;;;;;17.87;8.00;;;;;;;27.76;61.04;99734.82;1807314;79;21786;-78
2021/06/28 08:50:42;;;;;;;11.25;7.62;;;;;;;27.89;58.60;99748.65;1772098;80;21907;-78
2021/06/28 08:53:53;;;;;;;11.48;8.00;;;;;;;27.89;58.60;99748.65;1841920;77;22036;-78
2021/06/28 08:56:57;;;;;;;14.55;8.70;;;;;;;28.08;57.12;99748.63;1834808;77;21319;-78
2021/06/28 09:00:03;;;;;;;15.60;9.13;;;;;;;28.05;58.24;99760.50;1798041;79;21212;-79
2021/06/28 09:03:14;;;;;;;15.63;8.68;;;;;;;27.95;56.58;99767.70;1763016;80;21346;-79
2021/06/28 09:06:20;;;;;;;11.18;7.97;;;;;;;27.91;57.60;99769.44;1770181;80;21856;-79
2021/06/28 09:09:26;;;;;;;9.05;7.50;;;;;;;27.95;57.75;99767.70;1791672;79;21223;-79
2021/06/28 09:12:32;;;;;;;8.53;6.75;;;;;;;28.04;56.64;99772.87;1844147;77;21247;-78
2021/06/28 09:15:50;;;;;;;18.77;9.73;;;;;;;28.05;58.06;99768.94;1840739;77;21318;-78
2021/06/28 09:19:02;;;;;;;15.68;8.98;;;;;;;28.05;58.55;99770.34;1803350;79;21383;-78
2021/06/28 09:22:07;;;;;;;13.03;8.30;;;;;;;27.85;57.89;99771.47;1843688;77;21331;-78
2021/06/28 09:25:13;;;;;;;14.50;9.68;;;;;;;27.75;58.58;99774.44;1826334;77;21302;-78
2021/06/28 09:28:19;;;;;;;14.85;9.60;;;;;;;27.78;59.18;99775.81;1831559;77;21295;-78
2021/06/28 09:31:38;;;;;;;17.00;9.80;;;;;;;27.73;59.04;99777.56;1840485;77;21793;-78
2021/06/28 09:34:43;;;;;;;14.00;8.93;;;;;;;27.70;59.33;99775.89;1831994;77;21200;-78
2021/06/28 09:37:50;;;;;;;11.57;8.15;;;;;;;27.70;58.26;99779.52;1836713;77;21318;-78
2021/06/28 09:40:58;;;;;;;9.68;8.15;;;;;;;27.69;58.34;99772.81;1842204;77;21742;-78
2021/06/28 09:44:09;;;;;;;11.65;7.97;;;;;;;27.87;60.59;99774.83;1832257;77;21222;-78
2021/06/28 09:47:22;;;;;;;10.88;7.53;;;;;;;28.09;59.37;99776.17;1797229;79;21318;-79
2021/06/28 09:50:30;;;;;;;10.50;7.50;;;;;;;28.30;59.80;99771.89;1764097;80;21259;-78
2021/06/28 09:53:36;;;;;;;9.15;7.40;;;;;;;28.42;55.90;99767.21;1763128;80;21359;-78
2021/06/28 09:56:52;;;;;;;11.10;6.83;;;;;;;28.48;55.71;99762.61;1796764;79;21342;-77
2021/06/28 09:59:58;;;;;;;10.05;6.12;;;;;;;28.48;55.71;99762.61;1804308;79;21314;-78
2021/06/28 10:03:03;;;;;;;9.10;6.12;;;;;;;28.38;55.15;99773.22;1802507;79;22204;-78
2021/06/28 10:09:27;;;;;;;6.85;5.12;;;;;;;28.49;57.54;99776.10;1768528;80;21250;-79
2021/06/28 10:12:34;;;;;;;7.42;4.95;;;;;;;28.48;52.84;99764.02;1722047;80;21319;-79
2021/06/28 10:15:43;;;;;;;9.80;4.97;;;;;;;28.40;51.96;99773.73;1779159;79;21878;-78
2021/06/28 10:18:50;;;;;;;6.20;5.08;;;;;;;28.35;50.79;99772.41;1761378;80;21331;-78
2021/06/28 10:21:55;;;;;;;6.67;5.20;;;;;;;28.38;52.34;99770.41;1762667;79;21330;-78
2021/06/28 10:25:00;;;;;;;7.08;5.25;;;;;;;28.43;52.40;99763.28;1773954;79;21164;-78
2021/06/28 10:28:06;;;;;;;10.18;4.87;;;;;;;28.46;53.12;99772.48;1799725;78;21322;-78
2021/06/28 10:31:13;;;;;;;8.70;5.05;;;;;;;28.46;52.15;99767.69;1803302;77;21318;-78
2021/06/28 10:34:21;;;;;;;13.48;5.28;;;;;;;28.43;51.89;99768.91;1809621;79;21204;-78
2021/06/28 10:37:47;;;;;;;8.88;4.72;;;;;;;28.43;51.62;99765.52;1805820;78;21363;-78
2021/06/28 10:41:04;;;;;;;8.73;5.15;;;;;;;28.44;51.70;99760.72;1810648;79;21861;-77
2021/06/28 10:44:10;;;;;;;7.05;4.90;;;;;;;28.44;51.44;99765.77;1793656;78;21318;-78
2021/06/28 10:47:16;;;;;;;8.55;5.35;;;;;;;28.50;53.37;99767.34;1799924;78;21370;-78
2021/06/28 10:50:22;;;;;;;6.62;5.40;;;;;;;28.65;53.23;99762.58;1803352;78;21531;-78
2021/06/28 10:53:45;;;;;;;7.72;5.50;;;;;;;28.74;52.22;99767.77;1802509;78;21358;-78
2021/06/28 10:56:58;;;;;;;8.18;6.30;;;;;;;28.85;53.94;99767.02;1806903;78;21235;-78
2021/06/28 11:00:04;;;;;;;10.05;6.25;;;;;;;28.85;53.94;99767.02;1806209;79;21272;-78
2021/06/28 11:03:12;;;;;;;9.45;6.35;;;;;;;28.87;53.44;99767.53;1806901;78;21263;-78
2021/06/28 11:06:27;;;;;;;10.15;6.17;;;;;;;28.88;53.79;99772.83;1800760;78;21833;-78
2021/06/28 11:09:56;;;;;;;6.35;4.53;;;;;;;28.96;55.38;99766.52;1809164;77;21833;-78
2021/06/28 11:13:03;;;;;;;5.80;3.80;;;;;;;28.87;50.07;99761.90;1813525;78;21195;-78
2021/06/28 11:16:40;;;;;;;5.10;3.70;;;;;;;28.75;50.36;99768.88;1757226;78;21322;-78
2021/06/28 11:19:59;;;;;;;7.42;4.47;;;;;;;28.73;50.58;99765.52;1803309;78;21306;-78
2021/06/28 11:23:07;;;;;;;7.60;4.53;;;;;;;28.74;49.76;99770.58;1814162;78;21168;-78
2021/06/28 11:26:14;;;;;;;6.30;4.67;;;;;;;28.82;51.77;99771.84;1804922;78;21442;-78
2021/06/28 11:29:21;;;;;;;5.87;3.70;;;;;;;28.90;50.77;99770.56;1805845;78;21307;-78
2021/06/28 11:32:31;;;;;;;5.97;4.17;;;;;;;28.91;50.53;99771.39;1763212;78;21730;-78
2021/06/28 11:35:47;;;;;;;6.62;4.80;;;;;;;28.85;50.92;99771.23;1803053;78;21338;-77
2021/06/28 11:38:53;;;;;;;5.42;4.67;;;;;;;28.80;52.74;99775.56;1806694;78;21373;-78
2021/06/28 11:42:30;;;;;;;5.67;3.90;;;;;;;28.89;54.53;99776.48;1801053;78;21208;-78
2021/06/28 11:45:39;;;;;;;7.62;4.20;;;;;;;29.41;51.12;99775.19;1800693;78;21310;-78
2021/06/28 11:48:56;;;;;;;5.47;3.95;;;;;;;29.41;51.12;99775.19;1809100;78;21196;-78
2021/06/28 11:52:02;;;;;;;7.30;4.15;;;;;;;29.64;50.68;99774.72;1806447;78;21797;-77
2021/06/28 11:55:13;;;;;;;12.68;4.00;;;;;;;29.78;51.02;99773.25;1798612;78;21336;-78
2021/06/28 11:58:21;;;;;;;7.15;3.80;;;;;;;29.86;51.36;99775.91;1806067;78;21333;-78
2021/06/28 12:01:30;;;;;;;7.90;4.00;;;;;;;29.81;49.26;99774.04;1811437;78;21207;-78
2021/06/28 12:04:40;;;;;;;5.00;3.37;;;;;;;29.77;49.39;99775.23;1806148;78;21211;-78
2021/06/28 12:07:45;;;;;;;11.68;4.28;;;;;;;29.83;50.12;99766.12;1806639;79;21321;-78
2021/06/28 12:10:52;;;;;;;5.28;4.20;;;;;;;29.79;50.20;99764.50;1808409;78;21790;-78
2021/06/28 12:13:57;;;;;;;10.43;3.90;;;;;;;29.62;50.49;99764.33;1750738;79;21236;-78
2021/06/28 12:17:03;;;;;;;6.50;4.20;;;;;;;29.37;50.30;99767.68;1798960;78;21337;-77
2021/06/28 12:20:17;;;;;;;6.72;3.72;;;;;;;29.27;50.97;99762.52;1796973;78;21295;-78
2021/06/28 12:23:19;;;;;;;10.28;4.03;;;;;;;29.24;51.34;99763.14;1809064;78;21199;-78
2021/06/28 12:26:26;;;;;;;9.53;3.87;;;;;;;29.27;52.49;99759.70;1806419;77;21207;-78
2021/06/28 12:29:39;;;;;;;7.55;3.98;;;;;;;29.24;51.68;99763.14;1812093;78;21901;-78
2021/06/28 12:32:52;;;;;;;4.97;3.50;;;;;;;29.17;51.98;99765.55;1811265;79;21208;-78
2021/06/28 12:36:06;;;;;;;7.62;3.33;;;;;;;29.14;51.86;99760.54;1806047;78;21206;-78
2021/06/28 12:39:12;;;;;;;10.23;4.42;;;;;;;29.11;51.34;99762.56;1803940;78;21321;-78
2021/06/28 12:42:25;;;;;;;12.10;3.85;;;;;;;28.95;52.17;99767.67;1809342;78;21258;-78
2021/06/28 12:45:37;;;;;;;5.97;3.80;;;;;;;28.84;53.20;99768.14;1806630;78;21270;-78
2021/06/28 12:48:43;;;;;;;5.10;4.05;;;;;;;28.73;53.63;99764.11;1806027;78;21421;-77
2021/06/28 12:51:50;;;;;;;7.05;4.25;;;;;;;28.65;53.83;99758.36;1805809;78;21814;-77
2021/06/28 12:55:18;;;;;;;3.72;3.30;;;;;;;28.67;53.51;99758.33;1813031;78;21837;-78
2021/06/28 12:58:27;;;;;;;6.95;3.20;;;;;;;28.57;53.53;99756.28;1786041;79;21233;-78
2021/06/28 13:01:46;;;;;;;8.10;3.43;;;;;;;28.20;54.22;99757.44;1812708;77;21184;-78
2021/06/28 13:04:53;;;;;;;5.67;3.47;;;;;;;27.85;55.57;99753.78;1806796;78;21907;-78
2021/06/28 13:07:59;;;;;;;5.87;2.98;;;;;;;27.85;54.29;99756.02;1808531;78;21202;-78
2021/06/28 13:11:20;;;;;;;4.97;3.60;;;;;;;27.85;54.29;99756.02;1807725;78;21326;-78
2021/06/28 13:14:45;;;;;;;;;;;;;;;27.86;55.43;99756.87;1795202;78;21366;-78
2021/06/28 13:17:44;;;;;;;24.65;10.43;;;;;;;27.83;54.44;99756.07;1814297;79;20256;-78
2021/06/28 13:20:51;;;;;;;5.17;3.85;;;;;;;27.83;54.57;99756.07;1808813;78;21243;-78
2021/06/28 13:23:59;;;;;;;4.85;3.45;;;;;;;27.72;54.11;99756.80;1806689;78;21315;-78
2021/06/28 13:27:14;;;;;;;7.28;3.00;;;;;;;27.63;54.55;99762.80;1810340;79;21330;-78
2021/06/28 13:30:32;;;;;;;3.87;3.00;;;;;;;27.63;54.15;99757.18;1800650;78;21310;-78
2021/06/28 13:33:38;;;;;;;;;;;;;;;27.57;53.96;99757.83;1813994;79;21884;-78
2021/06/28 13:36:44;;;;;;;5.15;2.42;;;;;;;27.51;54.21;99754.80;1811539;78;20688;-78
2021/06/28 13:40:04;;;;;;;4.87;2.60;;;;;;;27.46;54.54;99760.48;1811601;78;21326;-78
2021/06/28 13:43:10;;;;;;;5.75;2.60;;;;;;;27.39;54.39;99755.83;1799583;78;22704;-78
2021/06/28 13:46:18;;;;;;;5.10;2.58;;;;;;;27.36;54.31;99758.66;1802104;77;21382;-78
2021/06/28 13:49:29;;;;;;;5.00;2.55;;;;;;;27.34;53.46;99762.34;1805366;79;21204;-78
2021/06/28 13:52:34;;;;;;;;;;;;;;;27.33;54.16;99757.01;1812619;79;21888;-78
2021/06/28 13:55:40;;;;;;;6.67;2.10;;;;;;;27.36;54.51;99753.61;1811817;77;20619;-77
2021/06/28 13:58:46;;;;;;;4.58;2.17;;;;;;;27.43;54.98;99754.92;1810403;79;21323;-78
2021/06/28 14:01:53;;;;;;;4.28;2.20;;;;;;;27.50;54.49;99758.75;1806897;77;21310;-78
2021/06/28 14:04:59;;;;;;;3.77;2.33;;;;;;;27.52;53.26;99757.87;1811659;78;21212;-77
2021/06/28 14:08:05;;;;;;;4.35;2.08;;;;;;;27.47;52.75;99757.37;1802015;78;21844;-78
2021/06/28 14:11:12;;;;;;;7.85;2.08;;;;;;;27.43;52.87;99762.48;1802534;78;21224;-78
2021/06/28 14:14:17;;;;;;;2.55;1.80;;;;;;;27.39;52.01;99760.04;1806112;78;21737;-77
2021/06/28 14:17:22;;;;;;;4.30;2.22;;;;;;;27.37;52.18;99771.55;1810040;78;21369;-78
2021/06/28 14:20:30;;;;;;;3.65;2.40;;;;;;;27.31;52.48;99769.95;1800642;78;21196;-78
2021/06/28 14:23:36;;;;;;;3.87;2.25;;;;;;;27.29;53.00;99769.97;1806557;79;21877;-78
2021/06/28 14:26:42;;;;;;;4.05;2.33;;;;;;;27.30;53.19;99763.25;1811294;79;21322;-78
2021/06/28 14:29:49;;;;;;;3.45;2.67;;;;;;;27.31;54.12;99764.34;1803078;78;21212;-78
2021/06/28 14:32:56;;;;;;;4.05;2.40;;;;;;;27.31;54.13;99767.72;1806267;78;21358;-78
2021/06/28 14:36:03;;;;;;;5.50;2.50;;;;;;;27.29;53.33;99758.74;1806764;78;21327;-78
2021/06/28 14:39:09;;;;;;;4.65;3.02;;;;;;;27.25;53.68;99757.96;1801541;78;21944;-78
2021/06/28 14:42:15;;;;;;;3.35;2.22;;;;;;;27.23;53.30;99763.02;1802731;78;21327;-78
2021/06/28 14:45:21;;;;;;;7.85;2.80;;;;;;;27.24;53.46;99766.13;1802780;78;21286;-78
2021/06/28 14:48:27;;;;;;;10.03;2.92;;;;;;;27.24;54.63;99766.13;1807546;78;21211;-78
2021/06/28 14:51:34;;;;;;;6.45;2.65;;;;;;;27.22;54.26;99758.55;1801973;78;21294;-78
2021/06/28 14:54:39;;;;;;;4.03;2.80;;;;;;;27.21;54.42;99761.66;1809428;78;21196;-78
2021/06/28 14:57:44;;;;;;;6.65;2.80;;;;;;;27.14;53.95;99750.78;1812141;78;21877;-77
2021/06/28 15:00:50;;;;;;;3.70;2.40;;;;;;;27.14;53.72;99756.97;1807115;78;21314;-78
2021/06/28 15:03:56;;;;;;;2.70;2.10;;;;;;;27.10;53.58;99758.70;1807769;78;21368;-78
2021/06/28 15:07:01;;;;;;;4.35;2.50;;;;;;;27.08;54.20;99754.80;1804411;77;21373;-77
2021/06/28 15:10:07;;;;;;;5.87;2.45;;;;;;;27.05;53.61;99758.16;1809446;78;21266;-78
2021/06/28 15:13:13;;;;;;;2.87;2.27;;;;;;;27.01;54.41;99754.30;1809634;79;21196;-78
2021/06/28 15:16:18;;;;;;;4.60;2.50;;;;;;;26.95;54.23;99754.91;1806393;78;21326;-78
2021/06/28 15:19:25;;;;;;;5.30;1.80;;;;;;;26.92;54.30;99758.90;1801607;78;21212;-78
2021/06/28 15:22:30;;;;;;;2.83;1.57;;;;;;;26.88;54.64;99762.03;1805681;78;21729;-77
2021/06/28 15:25:36;;;;;;;3.02;1.70;;;;;;;26.86;53.61;99768.48;1811196;78;21267;-78
2021/06/28 15:28:42;;;;;;;2.47;1.80;;;;;;;26.79;53.83;99763.81;1811516;79;21331;-78
2021/06/28 15:31:48;;;;;;;4.78;2.27;;;;;;;26.71;53.88;99769.48;1807402;78;21733;-76
2021/06/28 15:34:55;;;;;;;4.78;2.08;;;;;;;26.64;55.24;99772.66;1799286;78;21745;-78
2021/06/28 15:38:02;;;;;;;6.10;1.42;;;;;;;26.60;56.21;99769.33;1809495;78;21342;-78
2021/06/28 15:41:08;;;;;;;2.60;1.75;;;;;;;26.59;57.09;99767.66;1806366;78;21310;-78
2021/06/28 15:44:14;;;;;;;3.72;1.70;;;;;;;26.59;56.99;99775.52;1800334;78;21921;-78
2021/06/28 15:47:20;;;;;;;4.45;1.70;;;;;;;26.60;57.74;99771.56;1807402;78;21196;-78
2021/06/28 15:50:26;;;;;;;4.95;1.60;;;;;;;26.59;57.84;99765.69;1801682;79;21323;-78
2021/06/28 15:53:32;;;;;;;2.60;1.57;;;;;;;26.55;56.88;99766.58;1801885;78;21339;-78
2021/06/28 15:56:38;;;;;;;2.05;1.40;;;;;;;26.52;56.86;99759.58;1801545;78;21196;-78
2021/06/28 15:59:43;;;;;;;3.80;1.60;;;;;;;26.51;57.13;99766.33;1803537;78;21368;-78
2021/06/28 16:02:51;;;;;;;2.08;1.37;;;;;;;26.49;57.56;99762.99;1806348;78;21306;-77
2021/06/28 16:05:56;;;;;;;2.67;1.60;;;;;;;26.46;58.28;99763.58;1801241;78;21861;-78
2021/06/28 16:09:02;;;;;;;1.87;1.55;;;;;;;26.42;58.87;99761.05;1797920;78;21817;-77
2021/06/28 16:12:07;;;;;;;3.90;1.60;;;;;;;26.39;59.29;99767.23;1798236;78;21310;-78
2021/06/28 16:15:14;;;;;;;2.52;1.60;;;;;;;26.33;59.21;99770.66;1802099;78;21298;-78
2021/06/28 16:18:20;;;;;;;2.70;1.57;;;;;;;26.23;59.18;99779.98;1808180;78;21322;-78
2021/06/28 16:21:27;;;;;;;3.10;1.80;;;;;;;26.14;59.39;99778.94;1812314;79;21322;-77
2021/06/28 16:24:34;;;;;;;5.08;1.77;;;;;;;26.09;59.62;99783.19;1806705;78;21251;-78
2021/06/28 16:27:39;;;;;;;5.92;1.62;;;;;;;26.01;59.27;99782.39;1812197;78;21323;-78
2021/06/28 16:30:44;;;;;;;3.77;1.52;;;;;;;25.95;59.65;99787.77;1807298;77;21307;-78
2021/06/28 16:33:50;;;;;;;4.05;1.75;;;;;;;25.89;59.64;99791.75;1806826;78;21345;-78
2021/06/28 16:36:55;;;;;;;3.08;1.92;;;;;;;25.81;59.53;99786.17;1809217;79;21758;-77
2021/06/28 16:40:01;;;;;;;5.28;1.80;;;;;;;25.72;59.73;99784.52;1806480;78;21334;-78
2021/06/28 16:43:08;;;;;;;2.87;1.80;;;;;;;25.63;60.36;99784.02;1805887;78;21250;-78
2021/06/28 16:46:14;;;;;;;2.30;1.62;;;;;;;25.54;60.77;99786.58;1802197;78;21323;-78
2021/06/28 16:49:20;;;;;;;3.62;1.67;;;;;;;25.47;61.45;99795.30;1809967;79;21837;-79
2021/06/28 16:52:26;;;;;;;2.27;1.60;;;;;;;25.40;62.07;99786.92;1805528;78;21361;-78
2021/06/28 16:55:31;;;;;;;4.58;1.55;;;;;;;25.31;62.54;99793.67;1809650;79;21754;-78
2021/06/28 16:58:38;;;;;;;6.58;1.82;;;;;;;25.22;62.92;99790.66;1812972;78;21239;-78
2021/06/28 17:01:49;;;;;;;3.40;2.30;;;;;;;25.12;63.20;99792.06;1811762;79;21786;-78
2021/06/28 17:04:50;;;;;;;2.87;1.90;;;;;;;25.05;63.50;99795.71;1810189;78;21314;-78
2021/06/28 17:07:58;;;;;;;4.40;2.27;;;;;;;24.99;63.67;99799.66;1800412;78;21307;-77
2021/06/28 17:11:04;;;;;;;5.10;1.85;;;;;;;24.90;64.07;99795.20;1810928;78;21315;-79
2021/06/28 17:14:10;;;;;;;2.00;1.65;;;;;;;24.82;64.78;99801.92;1810175;79;21877;-78
2021/06/28 17:17:16;;;;;;;4.37;1.80;;;;;;;24.74;65.87;99802.76;1803923;78;21357;-79
2021/06/28 17:20:22;;;;;;;5.22;1.82;;;;;;;24.70;66.37;99800.28;1800782;78;21212;-78
2021/06/28 17:23:28;;;;;;;2.08;1.80;;;;;;;24.68;66.83;99804.46;1805706;78;21307;-78
2021/06/28 17:26:34;;;;;;;4.67;1.87;;;;;;;24.60;67.18;99804.45;1800807;78;21323;-78
2021/06/28 17:29:40;;;;;;;4.35;2.20;;;;;;;24.52;67.85;99809.23;1808142;78;21334;-79
2021/06/28 17:32:47;;;;;;;3.55;2.22;;;;;;;24.42;68.57;99806.45;1813151;79;21266;-79
2021/06/28 17:35:52;;;;;;;5.80;2.00;;;;;;;24.33;69.15;99802.51;1802301;77;21290;-79
2021/06/28 17:38:58;;;;;;;6.45;2.22;;;;;;;24.26;69.62;99804.73;1797030;78;22633;-78
2021/06/28 17:42:04;;;;;;;6.22;2.02;;;;;;;24.18;70.33;99804.71;1802668;78;21345;-78
2021/06/28 17:45:10;;;;;;;7.22;2.40;;;;;;;24.14;70.24;99803.05;1805447;78;21912;-78
2021/06/28 17:48:16;;;;;;;5.70;2.42;;;;;;;24.10;70.26;99809.48;1803805;77;21282;-78
2021/06/28 17:51:24;;;;;;;5.35;2.40;;;;;;;24.07;70.65;99812.25;1775922;78;21891;-77
2021/06/28 17:54:30;;;;;;;3.87;2.55;;;;;;;24.05;71.02;99820.08;1812428;78;21188;-77
2021/06/28 17:57:36;;;;;;;3.15;2.10;;;;;;;24.02;71.99;99819.23;1811102;79;21342;-77
2021/06/28 18:00:41;;;;;;;4.65;2.15;;;;;;;23.96;72.34;99821.74;1810542;79;21243;-78
2021/06/28 18:03:48;;;;;;;4.85;3.00;;;;;;;23.90;72.05;99814.45;1805253;78;21918;-77
2021/06/28 18:06:54;;;;;;;4.75;2.60;;;;;;;23.85;73.13;99823.66;1812630;78;21315;-77
2021/06/28 18:10:00;;;;;;;2.95;2.30;;;;;;;23.78;73.77;99825.88;1806009;79;21919;-77
2021/06/28 18:13:08;;;;;;;8.33;2.35;;;;;;;23.69;74.23;99824.18;1808844;79;21195;-77
2021/06/28 18:16:14;;;;;;;6.85;2.55;;;;;;;23.59;74.16;99819.09;1801339;78;21223;-77
2021/06/28 18:19:22;;;;;;;5.62;2.25;;;;;;;23.52;73.74;99817.94;1805040;78;21868;-77
2021/06/28 18:22:28;;;;;;;5.90;2.75;;;;;;;23.49;73.68;99819.06;1810244;79;21299;-77
2021/06/28 18:25:34;;;;;;;3.33;2.52;;;;;;;23.42;74.29;99822.09;1806868;78;21914;-77
2021/06/28 18:28:40;;;;;;;4.83;2.25;;;;;;;23.33;74.94;99819.54;1807130;79;21386;-77
2021/06/28 18:31:46;;;;;;;6.15;3.40;;;;;;;23.26;75.61;99814.22;1806733;77;21353;-77
2021/06/28 18:34:53;;;;;;;4.95;2.55;;;;;;;23.20;76.23;99821.73;1808164;78;21232;-77
2021/06/28 18:37:59;;;;;;;9.53;2.50;;;;;;;23.13;76.78;99816.10;1800270;78;21346;-77
2021/06/28 18:41:06;;;;;;;14.65;4.40;;;;;;;23.05;77.13;99814.66;1812836;78;21318;-77
2021/06/28 18:44:11;;;;;;;7.65;2.90;;;;;;;22.96;77.57;99820.48;1790554;79;21397;-77
2021/06/28 18:47:17;;;;;;;13.93;2.80;;;;;;;22.90;77.83;99818.76;1808946;78;21327;-77
2021/06/28 18:50:25;;;;;;;8.00;2.45;;;;;;;22.82;78.43;99817.83;1805799;79;21303;-78
2021/06/28 18:53:31;;;;;;;6.08;2.60;;;;;;;22.69;79.48;99814.98;1807031;78;21207;-77
2021/06/28 18:56:38;;;;;;;7.22;2.52;;;;;;;22.56;80.48;99812.64;1807938;78;21852;-77
2021/06/28 18:59:44;;;;;;;4.67;2.72;;;;;;;22.45;81.06;99820.09;1812263;77;21243;-77
2021/06/28 19:03:02;;;;;;;4.47;2.80;;;;;;;22.37;81.14;99822.80;1813892;78;21376;-78
2021/06/28 19:06:05;;;;;;;8.20;2.80;;;;;;;22.30;81.36;99818.02;1806786;78;21809;-77